createdAt,value
2023-01-19T00:01:12.415Z,100012.81
2023-01-19T00:04:13.978Z,100011.91
2023-01-19T00:07:15.888Z,100004.94
2023-01-19T00:10:17.721Z,100003.13
2023-01-19T00:13:19.248Z,100004.00
2023-01-19T00:16:21.392Z,100002.25
2023-01-19T00:19:23.111Z,100003.91
2023-01-19T00:22:24.782Z,100012.47
2023-01-19T00:25:26.312Z,100026.31
2023-01-19T00:28:27.842Z,100030.78
2023-01-19T00:31:30.151Z,100032.56
2023-01-19T00:34:32.332Z,100027.41
2023-01-19T00:37:33.831Z,100024.84
2023-01-19T00:40:35.327Z,100029.22
2023-01-19T00:43:36.810Z,100033.56
2023-01-19T00:46:39.268Z,100025.78
2023-01-19T00:49:40.829Z,100034.47
2023-01-19T00:52:43.684Z,100039.59
2023-01-19T00:55:45.216Z,100036.97
2023-01-19T00:58:46.712Z,100031.78
2023-01-19T01:01:48.443Z,100037.84
2023-01-19T01:04:50.258Z,100033.50
2023-01-19T01:07:51.854Z,100043.03
2023-01-19T01:10:54.648Z,100056.94
2023-01-19T01:13:56.164Z,100069.13
2023-01-19T01:16:58.306Z,100049.97
2023-01-19T01:19:59.885Z,100055.28
2023-01-19T01:23:01.884Z,100061.38
2023-01-19T01:26:03.819Z,100059.63
2023-01-19T01:29:06.287Z,100076.13
2023-01-19T01:32:08.395Z,100070.97
2023-01-19T01:35:10.984Z,100084.81
2023-01-19T01:38:12.548Z,100102.19
2023-01-19T01:41:14.424Z,100103.06
2023-01-19T01:44:44.191Z,100113.53
2023-01-19T01:47:48.607Z,100126.53
2023-01-19T01:50:52.384Z,100123.94
2023-01-19T01:54:08.307Z,100123.16
2023-01-19T01:57:11.480Z,100128.41
2023-01-19T02:00:14.302Z,100135.38
2023-01-19T02:03:16.122Z,100138.88
2023-01-19T02:06:17.767Z,100139.78
2023-01-19T02:09:19.735Z,100135.41
2023-01-19T02:12:22.653Z,100138.88
2023-01-19T02:15:24.153Z,100141.50
2023-01-19T02:18:29.084Z,100137.16
2023-01-19T02:21:46.519Z,100140.63
2023-01-19T02:24:48.626Z,100151.88
2023-01-19T02:27:51.358Z,100167.50
2023-01-19T02:30:53.019Z,100176.22
2023-01-19T02:33:54.929Z,100182.28
2023-01-19T02:36:59.490Z,100174.50
2023-01-19T02:40:03.116Z,100176.25
2023-01-19T02:43:07.069Z,100178.84
2023-01-19T02:46:08.921Z,100208.31
2023-01-19T02:49:10.560Z,100208.34
2023-01-19T02:52:17.811Z,100210.97
2023-01-19T02:55:25.961Z,100208.31
2023-01-19T02:59:01.412Z,100185.75
2023-01-19T03:02:23.130Z,100159.75
2023-01-19T03:05:24.756Z,100140.69
2023-01-19T03:08:36.718Z,100158.00
2023-01-19T03:11:41.844Z,100164.97
2023-01-19T03:14:47.264Z,100191.81
2023-01-19T03:17:50.581Z,100222.13
2023-01-19T03:20:57.435Z,100221.25
2023-01-19T03:24:03.024Z,100207.41
2023-01-19T03:27:10.974Z,100208.28
2023-01-19T03:30:32.066Z,100201.38
2023-01-19T03:33:38.135Z,100191.84
2023-01-19T03:36:53.301Z,100192.72
2023-01-19T03:39:54.961Z,100197.91
2023-01-19T03:42:56.721Z,100211.75
2023-01-19T03:45:59.245Z,100216.94
2023-01-19T03:49:00.767Z,100216.97
2023-01-19T03:52:02.334Z,100210.03
2023-01-19T03:55:05.739Z,100219.53
2023-01-19T03:58:26.298Z,100225.66
2023-01-19T04:01:28.169Z,100218.69
2023-01-19T04:04:29.831Z,100225.63
2023-01-19T04:07:31.336Z,100223.91
2023-01-19T04:10:33.276Z,100217.84
2023-01-19T04:13:34.922Z,100223.06
2023-01-19T04:16:36.541Z,100224.78
2023-01-19T04:19:38.048Z,100220.44
2023-01-19T04:22:39.710Z,100223.91
2023-01-19T04:25:41.781Z,100216.97
2023-01-19T04:28:43.291Z,100211.78
2023-01-19T04:31:44.776Z,100211.78
2023-01-19T04:34:46.251Z,100206.59
2023-01-19T04:37:48.299Z,100213.53
2023-01-19T04:41:08.304Z,100210.06
2023-01-19T04:44:09.940Z,100213.56
2023-01-19T04:47:11.426Z,100208.38
2023-01-19T04:50:12.993Z,100217.00
2023-01-19T04:53:14.544Z,100220.47
2023-01-19T04:56:16.028Z,100221.38
2023-01-19T04:59:17.564Z,100231.75
2023-01-19T05:02:19.069Z,100231.75
2023-01-19T05:05:20.800Z,100232.59
2023-01-19T05:08:22.348Z,100234.31
2023-01-19T05:11:24.168Z,100234.34
2023-01-19T05:14:25.756Z,100236.09
2023-01-19T05:17:27.443Z,100233.47
2023-01-19T05:20:28.938Z,100241.28
2023-01-19T05:23:30.601Z,100248.22
2023-01-19T05:26:32.123Z,100236.97
2023-01-19T05:29:34.017Z,100248.22
2023-01-19T05:32:35.566Z,100249.97
2023-01-19T05:35:37.154Z,100248.22
2023-01-19T05:38:38.674Z,100253.41
2023-01-19T05:41:40.216Z,100257.72
2023-01-19T05:44:41.714Z,100263.81
2023-01-19T05:47:43.268Z,100266.38
2023-01-19T05:50:44.811Z,100265.50
2023-01-19T05:53:46.389Z,100267.25
2023-01-19T05:56:48.096Z,100275.03
2023-01-19T05:59:49.804Z,100272.47
2023-01-19T06:02:51.406Z,100282.88
2023-01-19T06:05:52.968Z,100279.41
2023-01-19T06:08:54.494Z,100283.75
2023-01-19T06:11:55.956Z,100289.81
2023-01-19T06:14:57.427Z,100299.38
2023-01-19T06:17:58.925Z,100288.06
2023-01-19T06:21:06.918Z,100292.34
2023-01-19T06:24:09.561Z,100292.28
2023-01-19T06:27:11.117Z,100301.81
2023-01-19T06:30:13.426Z,100297.38
2023-01-19T06:33:14.979Z,100302.53
2023-01-19T06:36:16.524Z,100320.66
2023-01-19T06:39:18.006Z,100323.25
2023-01-19T06:42:19.540Z,100333.75
2023-01-19T06:45:21.059Z,100339.84
2023-01-19T06:48:24.225Z,100342.53
2023-01-19T06:51:31.081Z,100344.28
2023-01-19T06:55:06.452Z,100346.91
2023-01-19T06:58:32.844Z,100352.19
2023-01-19T07:01:34.747Z,100350.44
2023-01-19T07:04:36.270Z,100353.09
2023-01-19T07:07:37.945Z,100359.19
2023-01-19T07:11:23.152Z,100367.88
2023-01-19T07:14:00.914Z,100376.53
2023-01-19T07:17:10.061Z,100374.81
2023-01-19T07:20:17.758Z,100368.75
2023-01-19T07:23:23.721Z,100378.28
2023-01-19T07:26:30.064Z,100385.22
2023-01-19T07:29:31.511Z,100386.97
2023-01-19T07:32:33.047Z,100397.34
2023-01-19T07:35:49.181Z,100401.69
2023-01-19T07:38:50.755Z,100409.44
2023-01-19T07:41:52.335Z,100411.09
2023-01-19T07:44:59.085Z,100417.13
2023-01-19T07:51:59.446Z,100423.09
2023-01-19T07:55:01.989Z,100440.38
2023-01-19T07:58:03.847Z,100452.72
2023-01-19T08:01:11.372Z,100459.72
2023-01-19T08:04:14.681Z,100463.19
2023-01-19T08:07:16.390Z,100452.78
2023-01-19T08:10:18.011Z,100460.53
2023-01-19T08:13:19.492Z,100464.78
2023-01-19T08:16:21.108Z,100474.22
2023-01-19T08:19:22.854Z,100481.00
2023-01-19T08:22:24.498Z,100482.66
2023-01-19T08:25:36.405Z,100484.31
2023-01-19T08:28:38.017Z,100480.72
2023-01-19T08:31:39.825Z,100489.25
2023-01-19T08:34:41.536Z,100502.16
2023-01-19T08:37:43.080Z,100493.38
2023-01-19T08:40:45.119Z,100502.09
2023-01-19T08:43:46.704Z,100516.84
2023-01-19T08:57:13.143Z,100506.25
2023-01-19T09:00:15.118Z,100510.78
2023-01-19T09:03:16.856Z,100505.81
2023-01-19T09:06:18.455Z,100505.91
2023-01-19T09:09:20.003Z,100513.06
2023-01-19T09:12:21.641Z,100507.88
2023-01-19T09:15:23.634Z,100521.03
2023-01-19T09:18:25.155Z,100523.72
2023-01-19T09:21:26.714Z,100527.25
2023-01-19T09:24:28.507Z,100535.09
2023-01-19T09:27:30.721Z,100539.50
2023-01-19T09:30:32.534Z,100535.16
2023-01-19T09:33:34.878Z,100540.41
2023-01-19T09:36:36.596Z,100546.53
2023-01-19T09:39:38.298Z,100529.22
2023-01-19T09:42:47.344Z,100539.69
2023-01-19T09:45:54.917Z,100544.88
2023-01-19T10:19:57.482Z,100569.25
2023-01-19T10:23:05.107Z,100560.56
2023-01-19T10:26:27.159Z,100562.31
2023-01-19T10:29:37.170Z,100568.38
2023-01-19T10:32:41.154Z,100570.94
2023-01-19T10:35:42.960Z,100571.81
2023-01-19T10:38:45.258Z,100569.19
2023-01-19T10:41:53.711Z,100584.75
2023-01-19T10:44:55.267Z,100568.28
2023-01-19T10:48:07.061Z,100571.78
2023-01-19T10:51:10.874Z,100570.97
2023-01-19T10:54:13.270Z,100571.81
2023-01-19T10:57:27.955Z,100566.63
2023-01-19T11:00:49.965Z,100566.63
2023-01-19T11:03:52.756Z,100564.84
2023-01-19T11:07:13.978Z,100570.84
2023-01-19T11:10:32.998Z,100580.34
2023-01-19T11:13:36.007Z,100578.59
2023-01-19T11:16:38.755Z,100581.06
2023-01-19T11:19:40.530Z,100578.34
2023-01-19T11:23:09.730Z,100590.47
2023-01-19T11:26:49.940Z,100579.03
2023-01-19T11:30:24.313Z,100572.81
2023-01-19T11:34:02.896Z,100570.44
2023-01-19T11:37:16.702Z,100574.09
2023-01-19T11:40:18.335Z,100580.16
2023-01-19T11:43:22.396Z,100580.94
2023-01-19T11:46:31.827Z,100578.41
2023-01-19T11:49:42.952Z,100566.97
2023-01-19T11:52:55.295Z,100578.13
2023-01-19T11:56:14.663Z,100565.81
2023-01-19T11:59:16.781Z,100580.47
2023-01-19T12:02:29.627Z,100577.16
2023-01-19T12:05:33.955Z,100573.69
2023-01-19T12:08:41.725Z,100583.03
2023-01-19T12:11:53.133Z,100576.84
2023-01-19T12:15:34.955Z,100588.06
2023-01-19T12:18:41.851Z,100580.47
2023-01-19T12:21:45.372Z,100580.47
2023-01-19T12:25:01.405Z,100574.16
2023-01-19T12:28:03.516Z,100582.78
2023-01-19T12:31:05.446Z,100571.88
2023-01-19T12:34:39.904Z,100580.56
2023-01-19T12:37:42.660Z,100577.09
2023-01-19T12:40:44.306Z,100571.97
2023-01-19T12:43:47.640Z,100572.91
2023-01-19T12:47:14.914Z,100563.28
2023-01-19T12:50:19.372Z,100572.13
2023-01-19T12:53:21.587Z,100573.84
2023-01-19T12:56:31.122Z,100576.31
2023-01-19T12:59:36.531Z,100565.06
2023-01-19T13:02:46.614Z,100576.31
2023-01-19T13:05:51.152Z,100576.41
2023-01-19T13:08:52.764Z,100575.72
2023-01-19T13:12:10.539Z,100568.97
2023-01-19T13:15:41.835Z,100581.28
2023-01-19T13:18:50.264Z,100579.63
2023-01-19T13:21:51.884Z,100578.78
2023-01-19T13:25:13.762Z,100581.41
2023-01-19T13:28:18.500Z,100584.81
2023-01-19T13:31:20.995Z,100581.09
2023-01-19T13:34:25.485Z,100579.16
2023-01-19T13:37:39.447Z,100583.34
2023-01-19T13:40:41.193Z,100578.59
2023-01-19T13:43:43.463Z,100590.00
2023-01-19T13:46:46.669Z,100592.31
2023-01-19T13:49:54.414Z,100591.72
2023-01-19T13:52:56.963Z,100599.84
2023-01-19T13:56:19.183Z,100601.88
2023-01-19T13:59:20.779Z,100592.22
2023-01-19T14:02:22.530Z,100605.22
2023-01-19T14:05:35.285Z,100601.16
2023-01-19T14:08:36.964Z,100604.69
2023-01-19T14:11:38.687Z,100606.53
2023-01-19T14:14:42.500Z,100606.56
2023-01-19T14:17:44.057Z,100612.66
2023-01-19T14:20:58.818Z,100604.84
2023-01-19T14:24:19.769Z,100609.19
2023-01-19T14:27:23.454Z,100610.94
2023-01-19T14:30:28.911Z,100618.75
2023-01-19T14:33:42.127Z,100623.97
2023-01-19T14:36:43.880Z,100617.03
2023-01-19T14:39:50.687Z,100617.00
2023-01-19T14:42:55.352Z,100634.38
2023-01-19T14:45:57.138Z,100626.50
2023-01-19T14:49:03.100Z,100629.09
2023-01-19T14:52:08.409Z,100633.44
2023-01-19T14:55:20.618Z,100633.44
2023-01-19T14:58:27.332Z,100636.13
2023-01-19T15:01:29.139Z,100637.88
2023-01-19T15:04:30.962Z,100637.03
2023-01-19T15:07:35.368Z,100639.63
2023-01-19T15:10:37.127Z,100645.69
2023-01-19T15:13:40.521Z,100653.50
2023-01-19T15:16:42.922Z,100657.84
2023-01-19T15:19:47.726Z,100648.25
2023-01-19T15:22:51.584Z,100667.34
2023-01-19T15:25:59.073Z,100664.72
2023-01-19T15:29:00.724Z,100659.44
2023-01-19T15:32:02.331Z,100663.78
2023-01-19T15:35:12.335Z,100672.41
2023-01-19T15:38:14.124Z,100669.75
2023-01-19T15:41:23.801Z,100668.78
2023-01-19T15:44:25.619Z,100675.63
2023-01-19T15:47:27.249Z,100667.81
2023-01-19T15:50:28.937Z,100677.28
2023-01-19T15:53:30.558Z,100677.16
2023-01-19T15:56:51.032Z,100672.69
2023-01-19T15:59:52.746Z,100675.91
2023-01-19T16:02:54.568Z,100673.94
2023-01-19T16:06:00.281Z,100677.06
2023-01-19T16:09:02.086Z,100677.75
2023-01-19T16:12:03.777Z,100676.69
2023-01-19T16:15:05.970Z,100685.25
2023-01-19T16:18:07.711Z,100688.63
2023-01-19T16:21:09.496Z,100693.56
2023-01-19T16:24:11.095Z,100695.97
2023-01-19T16:27:12.802Z,100702.00
2023-01-19T16:30:15.197Z,100708.91
2023-01-19T16:33:16.825Z,100702.75
2023-01-19T16:36:22.803Z,100717.38
2023-01-19T16:39:24.416Z,100705.28
2023-01-19T16:42:25.963Z,100714.00
2023-01-19T16:45:27.638Z,100717.56
2023-01-19T16:48:29.610Z,100718.16
2023-01-19T16:51:31.968Z,100731.97
2023-01-19T16:54:33.687Z,100739.16
2023-01-19T16:57:36.132Z,100735.66
2023-01-19T17:00:37.666Z,100743.50
2023-01-19T17:03:39.463Z,100735.66
2023-01-19T17:06:40.982Z,100745.28
2023-01-19T17:09:42.573Z,100741.31
2023-01-19T17:12:44.342Z,100741.44
2023-01-19T17:15:45.976Z,100753.94
2023-01-19T17:18:47.989Z,100768.19
2023-01-19T17:21:50.173Z,100780.47
2023-01-19T17:24:51.952Z,100785.66
2023-01-19T17:27:53.598Z,100798.44
2023-01-19T17:30:55.342Z,100794.72
2023-01-19T17:33:57.369Z,100786.72
2023-01-19T17:36:59.008Z,100788.28
2023-01-19T17:40:00.716Z,100785.59
2023-01-19T17:43:02.402Z,100779.41
2023-01-19T17:46:04.020Z,100788.00
2023-01-19T17:49:07.315Z,100793.00
2023-01-19T17:52:08.938Z,100782.47
2023-01-19T17:55:10.994Z,100790.94
2023-01-19T17:58:12.538Z,100798.09
2023-01-19T18:01:23.230Z,100810.28
2023-01-19T18:04:24.809Z,100810.41
2023-01-19T18:07:26.495Z,100812.31
2023-01-19T18:10:28.158Z,100812.28
2023-01-19T18:13:30.187Z,100825.28
2023-01-19T18:16:31.814Z,100822.63
2023-01-19T18:19:33.466Z,100827.72
2023-01-19T18:22:35.071Z,100830.16
2023-01-19T18:25:36.707Z,100821.50
2023-01-19T18:28:38.442Z,100837.09
2023-01-19T18:31:39.988Z,100830.22
2023-01-19T18:34:41.585Z,100833.59
2023-01-19T18:37:43.149Z,100841.31
2023-01-19T18:40:45.073Z,100829.13
2023-01-19T18:43:46.939Z,100826.47
2023-01-19T18:46:48.602Z,100810.72
2023-01-19T18:49:50.073Z,100817.53
2023-01-19T18:52:51.650Z,100820.00
2023-01-19T18:55:55.145Z,100824.00
2023-01-19T18:58:57.206Z,100826.41
2023-01-19T19:01:58.798Z,100822.81
2023-01-19T19:05:00.432Z,100831.56
2023-01-19T19:08:02.158Z,100834.00
2023-01-19T19:11:07.303Z,100848.97
2023-01-19T19:14:09.455Z,100861.25
2023-01-19T19:17:11.130Z,100868.34
2023-01-19T19:20:13.780Z,100876.28
2023-01-19T19:23:15.413Z,100887.78
2023-01-19T19:26:16.989Z,100894.69
2023-01-19T19:29:18.587Z,100887.72
2023-01-19T19:32:20.264Z,100885.09
2023-01-19T19:35:25.559Z,100882.50
2023-01-19T19:38:30.029Z,100885.94
2023-01-19T19:42:35.972Z,100886.66
2023-01-19T19:45:21.469Z,100894.28
2023-01-19T19:48:23.303Z,100888.06
2023-01-19T19:51:27.930Z,100889.81
2023-01-19T19:54:29.563Z,100890.66
2023-01-19T19:57:31.084Z,100889.81
2023-01-19T20:00:32.670Z,100892.41
2023-01-19T20:03:34.191Z,100891.41
2023-01-19T20:06:38.364Z,100900.81
2023-01-19T20:09:39.833Z,100904.31
2023-01-19T20:12:41.382Z,100906.00
2023-01-19T20:15:42.907Z,100911.25
2023-01-19T20:18:47.418Z,100918.25
2023-01-19T20:21:49.012Z,100920.88
2023-01-19T20:24:50.464Z,100918.22
2023-01-19T20:27:52.393Z,100912.13
2023-01-19T20:30:53.919Z,100922.38
2023-01-19T20:33:57.670Z,100917.06
2023-01-19T20:36:59.125Z,100910.88
2023-01-19T20:40:00.744Z,100915.97
2023-01-19T20:43:02.265Z,100912.41
2023-01-19T20:46:04.302Z,100914.00
2023-01-19T20:49:05.929Z,100920.75
2023-01-19T20:52:07.730Z,100927.53
2023-01-19T20:55:09.323Z,100934.63
2023-01-19T20:58:10.802Z,100934.75
2023-01-19T21:01:18.612Z,100948.91
2023-01-19T21:04:20.210Z,100941.28
2023-01-19T21:07:21.737Z,100956.09
2023-01-19T21:10:23.247Z,100950.22
2023-01-19T21:13:24.866Z,100947.88
2023-01-19T21:16:45.022Z,100956.63
2023-01-19T21:19:46.572Z,100956.56
2023-01-19T21:22:48.125Z,100964.28
2023-01-19T21:25:53.789Z,100954.78
2023-01-19T21:28:59.075Z,100967.78
2023-01-19T21:32:00.680Z,100981.66
2023-01-19T21:35:02.301Z,100983.47
2023-01-19T21:38:04.147Z,100996.38
2023-01-19T21:41:08.148Z,101002.41
2023-01-19T21:44:12.410Z,101005.00
2023-01-19T21:47:13.928Z,101013.69
2023-01-19T21:50:15.767Z,101020.66
2023-01-19T21:53:17.271Z,101022.38
2023-01-19T21:56:18.920Z,101017.88
2023-01-19T21:59:20.604Z,101023.72
2023-01-19T22:02:37.672Z,101032.25
2023-01-19T22:05:39.632Z,101019.06
2023-01-19T22:08:41.938Z,101016.28
2023-01-19T22:11:43.660Z,101019.75
2023-01-19T22:14:45.165Z,101016.19
2023-01-19T22:17:46.723Z,101015.06
2023-01-19T22:20:48.258Z,101006.09
2023-01-19T22:23:52.149Z,101016.25
2023-01-19T22:26:53.645Z,101015.91
2023-01-19T22:29:55.177Z,101021.16
2023-01-19T22:32:56.699Z,101021.44
2023-01-19T22:36:18.880Z,101028.63
2023-01-19T22:39:20.504Z,101031.25
2023-01-19T22:42:22.088Z,101027.03
2023-01-19T22:45:23.813Z,101039.22
2023-01-19T22:48:25.326Z,101025.50
2023-01-19T22:51:28.202Z,101035.03
2023-01-19T22:54:29.727Z,101038.63
2023-01-19T22:57:32.928Z,101036.72
2023-01-19T23:00:34.504Z,101043.56
2023-01-19T23:03:37.286Z,101054.03
2023-01-19T23:06:38.889Z,101045.28
2023-01-19T23:09:40.433Z,101045.00
2023-01-19T23:12:41.953Z,101048.38
2023-01-19T23:15:43.540Z,101044.13
2023-01-19T23:18:45.390Z,101050.25
2023-01-19T23:21:50.762Z,101050.28
2023-01-19T23:24:52.332Z,101045.78
2023-01-19T23:27:53.832Z,101045.75
2023-01-19T23:30:55.633Z,101061.16
2023-01-19T23:33:59.613Z,101059.28
2023-01-19T23:37:01.156Z,101050.50
2023-01-19T23:40:02.837Z,101059.03
2023-01-19T23:43:04.517Z,101057.63
2023-01-19T23:46:07.542Z,101061.66
2023-01-19T23:49:09.340Z,101064.94
2023-01-19T23:52:10.895Z,101058.00
2023-01-19T23:55:12.932Z,101059.72
2023-01-19T23:58:14.659Z,101061.13
